aviador You're here:

KIFA Decoded Metar

in _UNIDENTIFIED
Report Time2017-06-24 23:55:00
UTC Time2017-06-25 00:04:32
Flight Rules vfr VFR
Wind310° at 18 Gusting to 24 kt
W.Decomp.*RWY 31: 18.0 kt HW 0.3 kt LCW
W.Rank310° ranks 1
Current wind is above 310° avg. (10.8)
Visibility9999 m
Phenomena:N/A
Clouds:N/A
Expected CloudBase > 6,400 ft AGL from Temp-Dew spread
CeilingNone
Temp22°C (ISA +9)
Dew Point06°C (36% RH)
AAT14.7°C
QNH1018 hPa
Density Alt2,178 ft
Elevation1,138 ft
Report Wrong Elevation
Raw Report
METAR KIFA 242355Z AUTO 31018G24KT 10SM CLR 22/06 A3007 RMK AO2 T02150060
10237 20214=

Extra information for KIFA:More info

Metar Taf Metar & Taf Last 4 Metars F.Rules Stats Wind Profile Meteogram Temp Stats Metar ALERT Operation Metar Decoded Social comments